createdAt,value
2019-06-07T00:00:02.962Z,10.23
2019-06-07T00:00:40.479Z,10.53
2019-06-07T00:01:19.303Z,11.50
2019-06-07T00:01:54.663Z,11.70
2019-06-07T00:02:30.140Z,12.17
2019-06-07T00:03:09.275Z,11.27
2019-06-07T00:03:44.187Z,11.80
2019-06-07T00:04:21.475Z,12.30
2019-06-07T00:04:57.629Z,11.67
2019-06-07T00:05:33.925Z,12.60
2019-06-07T00:06:13.183Z,11.67
2019-06-07T00:06:47.862Z,11.13
2019-06-07T00:07:24.211Z,11.53
2019-06-07T00:08:07.697Z,12.27
2019-06-07T00:08:38.142Z,11.10
2019-06-07T00:09:17.096Z,13.07
2019-06-07T00:09:51.581Z,11.77
2019-06-07T00:10:36.777Z,11.67
2019-06-07T00:11:07.279Z,11.40
2019-06-07T00:11:43.415Z,12.53
2019-06-07T00:12:21.566Z,11.93
2019-06-07T00:13:00.617Z,11.47
2019-06-07T00:13:36.349Z,12.23
2019-06-07T00:14:14.660Z,11.57
2019-06-07T00:14:50.603Z,12.37
2019-06-07T00:15:28.926Z,12.00
2019-06-07T00:16:04.105Z,11.87
2019-06-07T00:16:40.181Z,11.83
2019-06-07T00:17:18.193Z,11.50
2019-06-07T00:17:54.228Z,11.97
2019-06-07T00:18:30.758Z,12.00
2019-06-07T00:19:07.197Z,12.60
2019-06-07T00:19:43.281Z,12.60
2019-06-07T00:20:23.435Z,12.53
2019-06-07T00:20:56.914Z,12.73
2019-06-07T00:22:19.644Z,13.20
2019-06-07T00:22:48.979Z,12.57
2019-06-07T00:23:25.662Z,12.47
2019-06-07T00:24:01.700Z,15.67
2019-06-07T00:24:37.186Z,13.73
2019-06-07T00:25:17.824Z,13.40
2019-06-07T00:25:51.568Z,12.50
2019-06-07T00:26:27.733Z,12.93
2019-06-07T00:27:03.789Z,13.80
2019-06-07T00:27:39.820Z,13.30
2019-06-07T00:28:17.311Z,14.37
2019-06-07T00:28:53.433Z,13.13
2019-06-07T00:29:29.891Z,13.90
2019-06-07T00:30:32.669Z,14.93
2019-06-07T00:30:51.701Z,14.17
2019-06-07T00:31:24.743Z,15.33
2019-06-07T00:32:01.043Z,13.23
2019-06-07T00:32:37.112Z,14.63
2019-06-07T00:33:16.911Z,13.27
2019-06-07T00:33:50.664Z,14.10
2019-06-07T00:34:27.007Z,14.33
2019-06-07T00:35:03.066Z,13.20
2019-06-07T00:35:38.555Z,14.43
2019-06-07T00:36:17.593Z,14.40
2019-06-07T00:36:52.848Z,14.47
2019-06-07T00:37:28.328Z,14.20
2019-06-07T00:38:04.894Z,14.73
2019-06-07T00:38:41.461Z,18.47
2019-06-07T00:39:21.897Z,14.20
2019-06-07T00:40:13.339Z,15.10
2019-06-07T00:40:32.556Z,15.07
2019-06-07T00:41:08.002Z,14.30
2019-06-07T00:41:44.397Z,16.47
2019-06-07T00:42:21.620Z,15.13
2019-06-07T00:42:57.708Z,14.83
2019-06-07T00:43:34.073Z,16.37
2019-06-07T00:44:10.181Z,15.27
2019-06-07T00:44:45.675Z,15.03
2019-06-07T00:45:24.483Z,14.57
2019-06-07T00:45:59.561Z,15.40
2019-06-07T00:46:34.996Z,14.53
2019-06-07T00:47:13.055Z,14.97
2019-06-07T00:47:49.647Z,14.50
2019-06-07T00:48:32.178Z,14.27
2019-06-07T00:49:03.287Z,15.33
2019-06-07T00:49:41.491Z,13.73
2019-06-07T00:50:20.430Z,15.17
2019-06-07T00:50:54.789Z,14.47
2019-06-07T00:51:49.636Z,14.63
2019-06-07T00:52:07.983Z,14.50
2019-06-07T00:53:14.434Z,15.23
2019-06-07T00:53:31.659Z,15.93
2019-06-07T00:54:00.046Z,14.30
2019-06-07T00:54:36.116Z,14.57
2019-06-07T00:55:17.434Z,15.13
2019-06-07T00:55:52.118Z,14.93
2019-06-07T00:56:28.181Z,14.80
2019-06-07T00:57:04.843Z,14.00
2019-06-07T00:57:40.606Z,15.87
2019-06-07T00:58:17.974Z,14.57
2019-06-07T00:59:10.801Z,14.30
2019-06-07T00:59:32.294Z,14.87
2019-06-07T01:00:09.472Z,13.97
2019-06-07T01:00:45.520Z,15.40
2019-06-07T01:01:23.346Z,14.67
2019-06-07T01:01:58.934Z,15.10
2019-06-07T01:02:34.980Z,14.17
2019-06-07T01:03:12.709Z,13.30
2019-06-07T01:03:49.237Z,13.60
2019-06-07T01:04:27.038Z,13.43
2019-06-07T01:05:02.995Z,14.57
2019-06-07T01:05:39.050Z,13.53
2019-06-07T01:06:15.081Z,13.83
2019-06-07T01:06:50.740Z,14.07
2019-06-07T01:07:27.627Z,14.10
2019-06-07T01:08:04.887Z,14.17
2019-06-07T01:08:40.329Z,13.60
2019-06-07T01:09:17.742Z,13.10
2019-06-07T01:09:53.983Z,13.73
2019-06-07T01:10:52.444Z,14.43
2019-06-07T01:11:07.272Z,14.13
2019-06-07T01:11:43.321Z,13.23
2019-06-07T01:12:20.186Z,13.77
2019-06-07T01:12:57.364Z,13.70
2019-06-07T01:13:33.407Z,13.20
2019-06-07T01:14:08.899Z,13.93
2019-06-07T01:14:45.030Z,13.93
2019-06-07T01:15:28.818Z,14.50
2019-06-07T01:16:02.162Z,13.27
2019-06-07T01:16:56.451Z,14.20
2019-06-07T01:17:39.199Z,13.30
2019-06-07T01:18:46.438Z,13.07
2019-06-07T01:19:22.259Z,14.33
2019-06-07T01:19:57.551Z,14.50
2019-06-07T01:20:34.129Z,14.53
2019-06-07T01:21:10.745Z,14.60
2019-06-07T01:21:46.298Z,14.20
2019-06-07T01:22:28.398Z,13.83
2019-06-07T01:23:00.702Z,13.77
2019-06-07T01:24:15.262Z,13.80
2019-06-07T01:24:51.731Z,14.27
2019-06-07T01:25:28.949Z,14.70
2019-06-07T01:26:05.375Z,14.50
2019-06-07T01:26:41.421Z,13.17
2019-06-07T01:27:18.404Z,14.07
2019-06-07T01:27:55.175Z,14.00
2019-06-07T01:28:31.335Z,13.20
2019-06-07T01:29:06.890Z,14.00
2019-06-07T01:29:43.001Z,13.53
2019-06-07T01:30:24.272Z,14.07
2019-06-07T01:30:57.153Z,12.60
2019-06-07T01:31:33.329Z,13.70
2019-06-07T01:32:09.410Z,12.57
2019-06-07T01:32:44.867Z,13.50
2019-06-07T01:33:25.663Z,13.30
2019-06-07T01:34:00.218Z,12.83
2019-06-07T01:34:35.805Z,12.87
2019-06-07T01:35:12.574Z,12.47
2019-06-07T01:35:49.472Z,12.53
2019-06-07T01:36:29.075Z,14.20
2019-06-07T01:37:03.157Z,12.67
2019-06-07T01:37:39.818Z,13.37
2019-06-07T01:38:17.174Z,12.97
2019-06-07T01:38:53.937Z,12.43
2019-06-07T01:39:31.843Z,18.00
2019-06-07T01:40:08.226Z,13.50
2019-06-07T01:40:44.317Z,13.43
2019-06-07T01:41:23.635Z,13.63
2019-06-07T01:41:58.061Z,13.20
2019-06-07T01:42:34.108Z,12.30
2019-06-07T01:43:10.172Z,14.73
2019-06-07T01:43:45.927Z,12.70
2019-06-07T01:44:27.348Z,14.00
2019-06-07T01:45:00.184Z,12.50
2019-06-07T01:45:36.111Z,13.47
2019-06-07T01:46:12.530Z,12.53
2019-06-07T01:46:48.611Z,13.20
2019-06-07T01:47:28.694Z,13.13
2019-06-07T01:48:02.772Z,13.13
2019-06-07T01:48:49.104Z,12.93
2019-06-07T01:49:16.942Z,13.30
2019-06-07T01:49:53.444Z,13.23
2019-06-07T01:50:29.790Z,12.67
2019-06-07T01:51:05.782Z,13.00
2019-06-07T01:51:41.820Z,12.90
2019-06-07T01:52:19.596Z,13.07
2019-06-07T01:52:55.083Z,12.40
2019-06-07T01:53:31.781Z,12.70
2019-06-07T01:54:58.318Z,13.00
2019-06-07T01:55:26.746Z,12.33
2019-06-07T01:56:01.419Z,12.97
2019-06-07T01:56:37.332Z,13.17
2019-06-07T01:57:30.988Z,13.20
2019-06-07T01:57:51.657Z,13.63
2019-06-07T01:58:29.133Z,13.00
2019-06-07T01:59:04.892Z,12.33
2019-06-07T01:59:41.155Z,13.30
2019-06-07T02:00:17.928Z,12.80
2019-06-07T02:00:54.027Z,11.93
2019-06-07T02:01:35.254Z,12.00
2019-06-07T02:02:07.333Z,12.73
2019-06-07T02:02:43.686Z,15.43
2019-06-07T02:03:22.298Z,13.67
2019-06-07T02:03:58.683Z,12.67
2019-06-07T02:04:34.768Z,13.43
2019-06-07T02:05:12.098Z,12.90
2019-06-07T02:05:47.969Z,13.90
2019-06-07T02:06:27.932Z,13.53
2019-06-07T02:07:02.171Z,13.00
2019-06-07T02:07:37.660Z,13.33
2019-06-07T02:08:14.717Z,13.57
2019-06-07T02:08:51.694Z,12.87
2019-06-07T02:09:30.110Z,13.97
2019-06-07T02:10:05.571Z,13.23
2019-06-07T02:10:41.636Z,14.03
2019-06-07T02:11:18.092Z,13.17
2019-06-07T02:11:55.017Z,13.90
2019-06-07T02:12:40.323Z,12.97
2019-06-07T02:13:08.644Z,13.50
2019-06-07T02:13:44.701Z,13.50
2019-06-07T02:14:23.496Z,13.63
2019-06-07T02:14:58.447Z,14.03
2019-06-07T02:15:36.715Z,13.10
2019-06-07T02:16:12.234Z,13.27
2019-06-07T02:16:47.834Z,12.63
2019-06-07T02:17:26.304Z,14.07
2019-06-07T02:18:01.695Z,13.93
2019-06-07T02:18:58.817Z,12.67
2019-06-07T02:19:15.745Z,13.17
2019-06-07T02:19:51.870Z,12.53
2019-06-07T02:20:33.502Z,12.93
2019-06-07T02:21:05.518Z,13.23
2019-06-07T02:21:41.647Z,12.90
2019-06-07T02:22:17.661Z,13.43
2019-06-07T02:22:54.039Z,12.80
2019-06-07T02:23:33.100Z,13.37
2019-06-07T02:24:07.588Z,14.67
2019-06-07T02:24:44.019Z,14.20
2019-06-07T02:25:43.630Z,13.03
2019-06-07T02:25:58.026Z,13.40
2019-06-07T02:26:34.078Z,12.33
2019-06-07T02:27:10.143Z,11.53
2019-06-07T02:27:45.583Z,13.30
2019-06-07T02:28:32.086Z,13.03
2019-06-07T02:29:00.448Z,13.60
2019-06-07T02:29:35.898Z,12.93
2019-06-07T02:30:59.462Z,12.23
2019-06-07T02:31:32.294Z,17.20
2019-06-07T02:32:05.654Z,13.07
2019-06-07T02:32:42.415Z,13.53
2019-06-07T02:33:18.066Z,13.17
2019-06-07T02:33:54.382Z,12.53
2019-06-07T02:34:35.883Z,11.63
2019-06-07T02:35:08.127Z,12.97
2019-06-07T02:35:44.171Z,12.63
2019-06-07T02:36:25.656Z,13.47
2019-06-07T02:36:58.292Z,13.20
2019-06-07T02:37:36.940Z,13.10
2019-06-07T02:38:12.765Z,12.27
2019-06-07T02:38:48.600Z,12.37
2019-06-07T02:39:26.192Z,12.00
2019-06-07T02:40:03.604Z,11.27
2019-06-07T02:40:39.117Z,12.43
2019-06-07T02:41:15.170Z,12.93
2019-06-07T02:41:51.897Z,13.47
2019-06-07T02:42:30.805Z,12.07
2019-06-07T02:43:06.308Z,12.50
2019-06-07T02:43:42.382Z,12.33
2019-06-07T02:44:18.304Z,12.17
2019-06-07T02:44:54.713Z,12.30
2019-06-07T02:45:42.046Z,12.47
2019-06-07T02:46:27.676Z,12.53
2019-06-07T02:46:51.906Z,12.40
2019-06-07T02:47:31.237Z,12.40
2019-06-07T02:48:05.280Z,12.70
2019-06-07T02:48:41.426Z,11.87
2019-06-07T02:49:17.517Z,12.53
2019-06-07T02:49:53.223Z,12.50
2019-06-07T02:50:35.407Z,13.23
2019-06-07T02:51:07.242Z,13.83
2019-06-07T02:51:42.677Z,12.50
2019-06-07T02:52:19.063Z,12.43
2019-06-07T02:52:55.486Z,12.93
2019-06-07T02:53:39.536Z,12.27
2019-06-07T02:54:08.814Z,12.23
2019-06-07T02:54:44.891Z,11.37
2019-06-07T02:55:21.243Z,12.37
2019-06-07T02:56:35.372Z,12.20
2019-06-07T02:56:46.620Z,11.97
2019-06-07T02:57:12.504Z,11.90
2019-06-07T02:57:48.578Z,12.30
2019-06-07T02:58:26.202Z,11.57
2019-06-07T02:59:02.069Z,12.60
2019-06-07T03:00:04.411Z,12.13
2019-06-07T03:00:41.826Z,12.63
2019-06-07T03:01:08.483Z,12.13
2019-06-07T03:01:41.776Z,12.73
2019-06-07T03:02:15.402Z,11.70
2019-06-07T03:02:51.531Z,11.67
2019-06-07T03:03:30.390Z,12.03
2019-06-07T03:04:06.171Z,12.23
2019-06-07T03:04:44.493Z,10.93
2019-06-07T03:05:20.174Z,12.37
2019-06-07T03:05:57.822Z,11.40
2019-06-07T03:06:39.292Z,13.80
2019-06-07T03:07:13.546Z,12.53
2019-06-07T03:07:50.158Z,12.00
2019-06-07T03:08:28.264Z,12.17
2019-06-07T03:09:07.394Z,11.53
2019-06-07T03:09:44.302Z,12.23
2019-06-07T03:10:20.245Z,13.30
2019-06-07T03:10:57.440Z,11.67
2019-06-07T03:11:36.052Z,12.03
2019-06-07T03:12:14.431Z,12.00
2019-06-07T03:12:51.913Z,11.33
2019-06-07T03:13:30.097Z,12.57
2019-06-07T03:14:06.376Z,12.13
2019-06-07T03:14:44.977Z,11.93
2019-06-07T03:15:35.513Z,12.20
2019-06-07T03:16:00.772Z,13.50
2019-06-07T03:16:43.076Z,14.17
2019-06-07T03:17:38.390Z,13.17
2019-06-07T03:18:36.402Z,13.67
2019-06-07T03:19:16.507Z,13.40
2019-06-07T03:19:55.709Z,13.33
2019-06-07T03:20:35.093Z,13.80
2019-06-07T03:21:15.460Z,13.67
2019-06-07T03:21:54.689Z,14.20
2019-06-07T03:22:37.982Z,13.63
2019-06-07T03:23:11.316Z,13.67
2019-06-07T03:23:48.116Z,14.30
2019-06-07T03:24:30.061Z,13.13
2019-06-07T03:25:05.398Z,13.60
2019-06-07T03:25:43.864Z,12.97
2019-06-07T03:26:21.585Z,14.23
2019-06-07T03:27:48.271Z,12.83
2019-06-07T03:28:14.089Z,13.73
2019-06-07T03:28:50.364Z,12.23
2019-06-07T03:29:28.830Z,12.40
2019-06-07T03:30:35.265Z,12.00
2019-06-07T03:31:00.790Z,13.07
2019-06-07T03:31:20.819Z,12.63
2019-06-07T03:31:56.922Z,11.63
2019-06-07T03:32:36.865Z,12.90
2019-06-07T03:33:10.414Z,12.07
2019-06-07T03:33:46.510Z,12.07
2019-06-07T03:34:22.473Z,11.80
2019-06-07T03:34:59.498Z,12.23
2019-06-07T03:35:37.490Z,12.50
2019-06-07T03:36:23.774Z,12.93
2019-06-07T03:36:52.002Z,11.40
2019-06-07T03:37:30.758Z,11.57
2019-06-07T03:38:05.373Z,12.40
2019-06-07T03:38:42.077Z,11.90
2019-06-07T03:39:18.217Z,12.17
2019-06-07T03:39:54.289Z,12.67
2019-06-07T03:40:31.669Z,11.83
2019-06-07T03:41:08.553Z,11.67
2019-06-07T03:42:04.646Z,10.73
2019-06-07T03:42:22.027Z,11.27
2019-06-07T03:42:58.212Z,11.17
2019-06-07T03:43:36.654Z,10.93
2019-06-07T03:44:11.837Z,14.43
2019-06-07T03:44:48.207Z,10.13
2019-06-07T03:45:24.317Z,9.87
2019-06-07T03:46:00.422Z,11.17
2019-06-07T03:46:39.008Z,10.83
2019-06-07T03:47:13.664Z,10.23
2019-06-07T03:47:49.742Z,10.10
2019-06-07T03:48:28.334Z,10.17
2019-06-07T03:49:03.872Z,9.67
2019-06-07T03:49:42.594Z,10.93
2019-06-07T03:50:18.317Z,10.87
2019-06-07T03:51:04.166Z,10.83
2019-06-07T03:51:32.906Z,11.80
2019-06-07T03:52:10.250Z,11.43
2019-06-07T03:52:45.724Z,11.73
2019-06-07T03:53:22.551Z,12.00
2019-06-07T03:53:58.634Z,11.77
2019-06-07T03:54:36.936Z,10.57
2019-06-07T03:55:12.179Z,10.70
2019-06-07T03:55:48.543Z,11.63
2019-06-07T03:56:24.406Z,11.47
2019-06-07T03:57:00.823Z,10.73
2019-06-07T03:58:29.122Z,11.20
2019-06-07T03:58:32.655Z,10.70
2019-06-07T03:58:52.417Z,10.47
2019-06-07T03:59:31.262Z,10.67
2019-06-07T04:00:06.429Z,9.60
2019-06-07T04:00:43.578Z,10.47
2019-06-07T04:01:19.836Z,9.93
2019-06-07T04:01:55.750Z,11.13
2019-06-07T04:02:33.822Z,9.77
2019-06-07T04:03:09.636Z,9.83
2019-06-07T04:03:51.477Z,10.47
2019-06-07T04:04:23.075Z,9.63
2019-06-07T04:05:00.020Z,9.70
2019-06-07T04:05:40.271Z,9.33
2019-06-07T04:06:13.926Z,11.83
2019-06-07T04:06:50.554Z,11.70
2019-06-07T04:07:28.970Z,10.87
2019-06-07T04:08:04.195Z,10.00
2019-06-07T04:08:42.127Z,12.53
2019-06-07T04:09:17.966Z,10.90
2019-06-07T04:09:54.140Z,10.87
2019-06-07T04:10:51.967Z,10.67
2019-06-07T04:11:07.904Z,12.00
2019-06-07T04:11:44.398Z,12.03
2019-06-07T04:12:21.209Z,12.47
2019-06-07T04:12:56.774Z,12.80
2019-06-07T04:13:34.822Z,13.50
2019-06-07T04:14:10.654Z,13.23
2019-06-07T04:14:46.394Z,12.50
2019-06-07T04:15:23.163Z,12.33
2019-06-07T04:15:59.263Z,14.83
2019-06-07T04:16:38.807Z,14.60
2019-06-07T04:17:12.677Z,15.20
2019-06-07T04:18:01.532Z,14.57
2019-06-07T04:18:26.510Z,16.73
2019-06-07T04:19:02.975Z,17.20
2019-06-07T04:19:43.513Z,18.77
2019-06-07T04:20:17.295Z,18.93
2019-06-07T04:20:53.677Z,18.73
2019-06-07T04:21:31.938Z,18.27
2019-06-07T04:22:07.991Z,20.00
2019-06-07T04:22:44.477Z,17.57
2019-06-07T04:23:31.283Z,19.07
2019-06-07T04:23:57.893Z,19.33
2019-06-07T04:24:38.491Z,16.77
2019-06-07T04:25:13.112Z,16.40
2019-06-07T04:25:48.982Z,17.23
2019-06-07T04:26:25.204Z,14.63
2019-06-07T04:27:01.435Z,16.03
2019-06-07T04:27:39.241Z,14.33
2019-06-07T04:28:15.075Z,13.07
2019-06-07T04:29:41.093Z,14.37
2019-06-07T04:30:08.429Z,13.67
2019-06-07T04:30:45.227Z,12.97
2019-06-07T04:31:22.250Z,13.20
2019-06-07T04:31:58.511Z,12.50
2019-06-07T04:32:37.077Z,12.57
2019-06-07T04:33:12.627Z,12.73
2019-06-07T04:33:49.659Z,12.60
2019-06-07T04:34:26.189Z,11.80
2019-06-07T04:35:01.805Z,11.07
2019-06-07T04:35:40.146Z,13.40
2019-06-07T04:36:17.403Z,11.93
2019-06-07T04:36:58.985Z,10.93
2019-06-07T04:37:35.669Z,11.40
2019-06-07T04:38:12.080Z,11.00
2019-06-07T04:38:50.351Z,11.10
2019-06-07T04:39:26.607Z,10.63
2019-06-07T04:40:03.121Z,10.73
2019-06-07T04:40:42.459Z,10.50
2019-06-07T04:41:19.246Z,10.20
2019-06-07T04:41:58.072Z,10.57
2019-06-07T04:42:39.173Z,9.90
2019-06-07T04:43:13.943Z,9.43
2019-06-07T04:43:51.478Z,9.37
2019-06-07T04:44:27.303Z,10.77
2019-06-07T04:45:05.216Z,10.67
2019-06-07T04:45:50.370Z,11.03
2019-06-07T04:46:20.302Z,9.17
2019-06-07T04:46:58.463Z,9.77
2019-06-07T04:47:39.608Z,9.73
2019-06-07T04:48:14.684Z,9.43
2019-06-07T04:48:52.794Z,10.87
2019-06-07T04:49:30.548Z,10.47
2019-06-07T04:50:07.279Z,10.30
2019-06-07T04:50:44.117Z,10.57
2019-06-07T04:51:22.355Z,10.87
2019-06-07T04:51:58.565Z,10.33
2019-06-07T04:52:39.865Z,11.77
2019-06-07T04:53:13.173Z,10.90
2019-06-07T04:53:48.658Z,11.70
2019-06-07T04:54:24.919Z,10.27
2019-06-07T04:55:01.529Z,11.97
2019-06-07T04:55:39.938Z,11.30
2019-06-07T04:56:15.208Z,10.53
2019-06-07T04:56:51.528Z,12.17
2019-06-07T04:57:27.179Z,10.93
2019-06-07T04:58:03.625Z,11.63
2019-06-07T04:58:41.329Z,11.07
2019-06-07T05:00:00.350Z,10.80
2019-06-07T05:00:12.953Z,12.27
2019-06-07T05:00:49.801Z,12.57
2019-06-07T05:01:26.768Z,11.03
2019-06-07T05:01:49.969Z,10.37
2019-06-07T05:02:26.566Z,11.47
2019-06-07T05:03:02.490Z,11.37
2019-06-07T05:03:43.807Z,12.07
2019-06-07T05:04:17.178Z,11.97
2019-06-07T05:04:52.931Z,12.10
2019-06-07T05:05:29.334Z,11.73
2019-06-07T05:06:05.599Z,12.67
2019-06-07T05:06:42.469Z,11.93
2019-06-07T05:07:19.222Z,12.40
2019-06-07T05:07:55.841Z,12.70
2019-06-07T05:08:33.455Z,11.97
2019-06-07T05:09:09.790Z,12.27
2019-06-07T05:09:46.686Z,13.10
2019-06-07T05:10:22.436Z,13.97
2019-06-07T05:10:59.244Z,13.53
2019-06-07T05:11:36.461Z,14.43
2019-06-07T05:12:12.508Z,13.03
2019-06-07T05:12:48.915Z,14.53
2019-06-07T05:13:25.065Z,13.57
2019-06-07T05:14:00.934Z,13.67
2019-06-07T05:14:39.110Z,14.47
2019-06-07T05:15:15.498Z,12.97
2019-06-07T05:15:51.142Z,13.90
2019-06-07T05:16:27.930Z,12.77
2019-06-07T05:17:04.769Z,12.93
2019-06-07T05:17:43.433Z,12.87
2019-06-07T05:18:18.104Z,14.27
2019-06-07T05:18:54.424Z,13.63
2019-06-07T05:19:30.574Z,13.27
2019-06-07T05:20:07.654Z,12.53
2019-06-07T05:20:44.723Z,11.83
2019-06-07T05:21:20.870Z,11.87
2019-06-07T05:22:04.139Z,12.97
2019-06-07T05:22:38.894Z,12.40
2019-06-07T05:23:59.263Z,12.63
2019-06-07T05:24:06.269Z,11.90
2019-06-07T05:24:28.083Z,11.43
2019-06-07T05:25:03.690Z,11.70
2019-06-07T05:25:44.493Z,12.97
2019-06-07T05:26:18.642Z,12.27
2019-06-07T05:26:54.415Z,11.13
2019-06-07T05:27:33.582Z,12.17
2019-06-07T05:28:08.614Z,11.57
2019-06-07T05:28:44.115Z,11.33
2019-06-07T05:29:20.661Z,12.17
2019-06-07T05:30:09.446Z,12.40
2019-06-07T05:31:03.101Z,11.73
2019-06-07T05:31:14.783Z,13.20
2019-06-07T05:31:51.644Z,12.63
2019-06-07T05:32:27.912Z,13.20
2019-06-07T05:33:04.853Z,15.97
2019-06-07T05:33:43.571Z,13.83
2019-06-07T05:34:18.709Z,12.90
2019-06-07T05:34:54.936Z,14.37
2019-06-07T05:35:33.167Z,12.13
2019-06-07T05:36:08.661Z,13.63
2019-06-07T05:36:45.271Z,14.30
2019-06-07T05:37:22.415Z,13.67
2019-06-07T05:37:58.163Z,15.13
2019-06-07T05:38:36.095Z,14.73
2019-06-07T05:39:12.094Z,13.93
2019-06-07T05:39:47.654Z,13.97
2019-06-07T05:40:34.899Z,13.20
2019-06-07T05:41:11.535Z,14.13
2019-06-07T05:41:47.467Z,14.67
2019-06-07T05:42:24.417Z,14.70
2019-06-07T05:43:00.502Z,15.00
2019-06-07T05:43:39.301Z,13.80
2019-06-07T05:44:15.223Z,14.70
2019-06-07T05:44:52.344Z,15.83
2019-06-07T05:45:37.704Z,14.97
2019-06-07T05:46:11.829Z,16.30
2019-06-07T05:46:47.896Z,16.33
2019-06-07T05:47:23.537Z,14.83
2019-06-07T05:47:59.728Z,15.30
2019-06-07T05:48:37.286Z,15.53
2019-06-07T05:49:13.966Z,15.00
2019-06-07T05:49:50.334Z,16.27
2019-06-07T05:50:44.822Z,15.13
2019-06-07T05:51:03.975Z,15.07
2019-06-07T05:51:43.317Z,15.17
2019-06-07T05:52:18.415Z,18.23
2019-06-07T05:52:55.602Z,18.43
2019-06-07T05:53:32.862Z,17.98
2019-06-07T05:54:08.990Z,18.60
2019-06-07T05:54:46.804Z,16.23
2019-06-07T05:55:23.119Z,16.10
2019-06-07T05:56:00.136Z,17.17
2019-06-07T05:56:39.052Z,17.63
2019-06-07T05:57:14.749Z,21.35
2019-06-07T05:57:51.210Z,19.93
2019-06-07T05:58:27.281Z,17.27
2019-06-07T05:59:03.342Z,18.80
2019-06-07T05:59:43.611Z,16.12
2019-06-07T06:00:17.913Z,17.12
2019-06-07T06:00:54.185Z,16.93
2019-06-07T06:01:58.955Z,16.85
2019-06-07T06:02:21.817Z,17.33
2019-06-07T06:03:04.094Z,16.60
2019-06-07T06:03:24.791Z,16.48
2019-06-07T06:04:01.017Z,17.92
2019-06-07T06:04:40.281Z,17.55
2019-06-07T06:05:32.463Z,17.12
2019-06-07T06:05:55.482Z,15.38
2019-06-07T06:06:33.912Z,15.88
2019-06-07T06:07:10.618Z,15.32
2019-06-07T06:07:50.456Z,16.97
2019-06-07T06:08:25.077Z,16.70
2019-06-07T06:09:13.425Z,17.40
2019-06-07T06:09:40.618Z,15.78
2019-06-07T06:10:16.691Z,15.27
2019-06-07T06:10:53.320Z,15.15
2019-06-07T06:11:46.828Z,15.27
2019-06-07T06:12:08.466Z,16.80
2019-06-07T06:12:51.267Z,16.48
2019-06-07T06:13:21.834Z,16.32
2019-06-07T06:14:07.279Z,17.30
2019-06-07T06:14:39.597Z,17.40
2019-06-07T06:15:15.069Z,16.93
2019-06-07T06:16:01.383Z,16.48
2019-06-07T06:16:30.659Z,16.42
2019-06-07T06:17:06.957Z,15.83
2019-06-07T06:17:48.881Z,16.25
2019-06-07T06:18:22.100Z,16.07
2019-06-07T06:18:57.616Z,16.32
2019-06-07T06:19:33.696Z,16.10
2019-06-07T06:20:10.771Z,14.70
2019-06-07T06:21:09.476Z,15.68
2019-06-07T06:21:25.361Z,15.43
2019-06-07T06:22:02.255Z,15.03
2019-06-07T06:22:43.462Z,15.63
2019-06-07T06:23:16.160Z,16.50
2019-06-07T06:23:54.053Z,16.77
2019-06-07T06:24:30.392Z,15.43
2019-06-07T06:25:53.706Z,15.68
2019-06-07T06:26:23.604Z,15.85
2019-06-07T06:27:18.917Z,15.83
2019-06-07T06:28:07.842Z,15.70
2019-06-07T06:28:16.561Z,16.52
2019-06-07T06:28:53.433Z,16.17
2019-06-07T06:29:30.358Z,15.85
2019-06-07T06:30:07.771Z,15.25
2019-06-07T06:30:47.494Z,15.20
2019-06-07T06:31:22.689Z,15.35
2019-06-07T06:32:49.339Z,15.75
2019-06-07T06:33:27.414Z,16.93
2019-06-07T06:33:54.047Z,14.93
2019-06-07T06:34:31.087Z,16.17
2019-06-07T06:35:08.178Z,15.55
2019-06-07T06:35:47.490Z,17.23
2019-06-07T06:36:22.048Z,17.10
2019-06-07T06:36:59.085Z,15.30
2019-06-07T06:37:35.251Z,15.28
2019-06-07T06:38:12.011Z,15.78
2019-06-07T06:38:49.758Z,15.18
2019-06-07T06:39:26.236Z,14.73
2019-06-07T06:40:03.001Z,15.48
2019-06-07T06:40:44.276Z,15.45
2019-06-07T06:41:17.597Z,14.55
2019-06-07T06:42:01.681Z,15.10
2019-06-07T06:42:32.604Z,15.08
2019-06-07T06:43:08.825Z,13.83
2019-06-07T06:43:49.091Z,14.30
2019-06-07T06:44:24.372Z,15.83
2019-06-07T06:45:00.497Z,14.15
2019-06-07T06:45:37.683Z,15.00
2019-06-07T06:46:31.832Z,14.50
2019-06-07T06:46:57.593Z,13.03
2019-06-07T06:47:31.451Z,13.93
2019-06-07T06:48:07.711Z,13.78
2019-06-07T06:48:48.248Z,14.35
2019-06-07T06:49:22.264Z,13.45
2019-06-07T06:49:58.641Z,13.83
2019-06-07T06:50:35.075Z,14.25
2019-06-07T06:51:11.657Z,13.30
2019-06-07T06:51:53.263Z,13.90
2019-06-07T06:52:25.545Z,13.78
2019-06-07T06:53:01.655Z,13.70
2019-06-07T06:53:40.417Z,13.40
2019-06-07T06:54:16.471Z,14.07
2019-06-07T06:54:59.945Z,12.95
2019-06-07T06:55:31.414Z,12.53
2019-06-07T06:56:06.868Z,13.30
2019-06-07T06:56:45.144Z,12.35
2019-06-07T06:57:21.848Z,12.13
2019-06-07T06:57:58.046Z,12.15
2019-06-07T06:59:18.393Z,11.83
2019-06-07T06:59:37.271Z,13.00
2019-06-07T06:59:52.442Z,11.25
2019-06-07T07:00:56.825Z,11.50
2019-06-07T07:01:26.877Z,10.23
2019-06-07T07:02:03.035Z,11.12
2019-06-07T07:03:26.978Z,10.25
2019-06-07T07:04:11.031Z,11.43
2019-06-07T07:04:33.767Z,11.25
2019-06-07T07:05:13.294Z,11.12
2019-06-07T07:05:54.435Z,11.78
2019-06-07T07:06:29.585Z,10.38
2019-06-07T07:07:05.742Z,11.12
2019-06-07T07:07:42.752Z,11.05
2019-06-07T07:08:19.045Z,12.78
2019-06-07T07:08:55.223Z,10.65
2019-06-07T07:09:30.736Z,10.78
2019-06-07T07:10:07.943Z,10.93
2019-06-07T07:10:45.985Z,10.82
2019-06-07T07:11:23.327Z,11.68
2019-06-07T07:12:10.931Z,9.93
2019-06-07T07:12:38.809Z,10.38
2019-06-07T07:13:15.059Z,10.03
2019-06-07T07:13:56.175Z,10.30
2019-06-07T07:14:30.763Z,10.30
2019-06-07T07:15:07.132Z,10.63
2019-06-07T07:15:46.838Z,10.05
2019-06-07T07:16:21.844Z,9.55
2019-06-07T07:16:58.109Z,9.60
2019-06-07T07:17:52.700Z,10.85
2019-06-07T07:18:12.898Z,9.05
2019-06-07T07:18:51.713Z,9.95
2019-06-07T07:19:26.829Z,9.70
2019-06-07T07:20:03.576Z,9.73
2019-06-07T07:20:39.613Z,9.53
2019-06-07T07:21:16.233Z,9.50
2019-06-07T07:21:55.218Z,9.40
2019-06-07T07:22:30.781Z,9.05
2019-06-07T07:23:07.104Z,9.10
2019-06-07T07:24:05.456Z,10.00
2019-06-07T07:24:22.366Z,9.38
2019-06-07T07:24:59.445Z,8.53
2019-06-07T07:25:35.513Z,8.88
2019-06-07T07:26:11.830Z,9.13
2019-06-07T07:26:50.048Z,10.85
2019-06-07T07:27:25.757Z,8.28
2019-06-07T07:28:01.314Z,9.10
2019-06-07T07:28:37.365Z,9.80
2019-06-07T07:29:13.710Z,9.93
2019-06-07T07:29:56.436Z,10.60
2019-06-07T07:30:44.897Z,9.23
2019-06-07T07:31:21.139Z,9.58
2019-06-07T07:31:56.841Z,8.58
2019-06-07T07:32:32.849Z,9.63
2019-06-07T07:33:09.132Z,9.45
2019-06-07T07:34:27.364Z,9.83
2019-06-07T07:34:33.502Z,9.95
2019-06-07T07:35:00.985Z,9.63
2019-06-07T07:35:36.523Z,9.25
2019-06-07T07:36:35.344Z,9.70
2019-06-07T07:36:59.089Z,9.90
2019-06-07T07:37:30.419Z,9.30
2019-06-07T07:38:06.471Z,9.07
2019-06-07T07:38:45.602Z,8.85
2019-06-07T07:39:20.160Z,9.73
2019-06-07T07:40:01.724Z,8.83
2019-06-07T07:40:56.966Z,8.55
2019-06-07T07:41:15.614Z,8.88
2019-06-07T07:42:13.855Z,10.47
2019-06-07T07:42:28.340Z,10.20
2019-06-07T07:43:04.187Z,8.50
2019-06-07T07:43:40.227Z,9.98
2019-06-07T07:44:16.681Z,13.25
2019-06-07T07:44:55.130Z,9.43
2019-06-07T07:45:31.026Z,9.30
2019-06-07T07:46:28.615Z,8.35
2019-06-07T07:46:46.507Z,9.98
2019-06-07T07:47:23.207Z,9.53
2019-06-07T07:48:14.602Z,8.38
2019-06-07T07:48:37.108Z,8.83
2019-06-07T07:49:13.168Z,8.95
2019-06-07T07:49:52.982Z,9.03
2019-06-07T07:50:26.789Z,10.03
2019-06-07T07:51:03.741Z,8.80
2019-06-07T07:51:39.791Z,9.28
2019-06-07T07:52:15.236Z,9.33
2019-06-07T07:52:56.043Z,9.48
2019-06-07T07:53:47.823Z,8.55
2019-06-07T07:54:10.684Z,8.88
2019-06-07T07:54:46.742Z,9.25
2019-06-07T07:55:23.345Z,9.40
2019-06-07T07:56:00.350Z,8.40
2019-06-07T07:56:36.739Z,8.90
2019-06-07T07:57:12.793Z,8.45
2019-06-07T07:57:49.449Z,8.23
2019-06-07T07:58:27.260Z,8.70
2019-06-07T07:59:03.910Z,8.38
2019-06-07T07:59:42.114Z,9.20
2019-06-07T08:00:49.282Z,9.03
2019-06-07T08:01:07.702Z,9.65
2019-06-07T08:01:33.650Z,8.85
2019-06-07T08:02:09.679Z,8.20
2019-06-07T08:02:48.837Z,8.93
2019-06-07T08:03:23.460Z,8.90
2019-06-07T08:04:00.084Z,8.43
2019-06-07T08:05:12.672Z,8.53
2019-06-07T08:05:23.332Z,8.70